Time;durP1;ratioP1;P1;durP2;ratioP2;P2;SDS_P1;SDS_P2;PMS_P1;PMS_P2;Temp;Humidity;BMP_temperature;BMP_pressure;BME280_temperature;BME280_humidity;BME280_pressure;Samples;Min_cycle;Max_cycle;Signal;HPM_P1;HPM_P2
2023/05/31 00:00:45;;;;;;;;;;;;;;;20.24;100.00;102483.66;5063203;28;19952;-54
2023/05/31 00:03:11;;;;;;;;;;;;;;;20.23;100.00;102482.00;5060878;28;19913;-52
2023/05/31 00:05:36;;;;;;;;;;;;;;;19.89;100.00;102477.59;5062537;28;19929;-53
2023/05/31 00:08:02;;;;;;;;;;;;;;;19.85;100.00;102479.09;5058314;28;19980;-55
2023/05/31 00:10:27;;;;;;;;;;;;;;;19.98;100.00;102480.09;5060479;28;19924;-52
2023/05/31 00:12:53;;;;;;;;;;;;;;;20.06;100.00;102483.38;5060313;28;19913;-53
2023/05/31 00:15:19;;;;;;;;;;;;;;;20.10;100.00;102481.06;5058460;28;19912;-50
2023/05/31 00:17:44;;;;;;;;;;;;;;;20.08;100.00;102485.88;5062242;28;19913;-52
2023/05/31 00:20:10;;;;;;;;;;;;;;;19.99;100.00;102479.03;5060286;28;19919;-55
2023/05/31 00:22:35;;;;;;;;;;;;;;;19.85;100.00;102475.53;5040455;28;19917;-50
2023/05/31 00:25:00;;;;;;;;;;;;;;;20.00;100.00;102475.25;5059022;28;19947;-53
2023/05/31 00:27:26;;;;;;;;;;;;;;;19.91;100.00;102475.53;5061305;28;19940;-55
2023/05/31 00:29:52;;;;;;;;;;;;;;;19.92;100.00;102474.47;5041380;28;19923;-52
2023/05/31 00:32:17;;;;;;;;;;;;;;;19.82;100.00;102484.94;5060436;28;19948;-53
2023/05/31 00:34:42;;;;;;;;;;;;;;;19.94;100.00;102487.00;5060437;28;19919;-53
2023/05/31 00:37:08;;;;;;;;;;;;;;;19.62;100.00;102480.47;5058776;28;19972;-53
2023/05/31 00:39:34;;;;;;;;;;;;;;;19.80;100.00;102475.38;5041904;28;19947;-56
2023/05/31 00:41:59;;;;;;;;;;;;;;;19.51;100.00;102481.13;5034953;28;19921;-53
2023/05/31 00:44:25;;;;;;;;;;;;;;;19.64;100.00;102482.97;5057807;28;19923;-55
2023/05/31 00:46:50;;;;;;;;;;;;;;;19.49;100.00;102480.53;5056213;28;19917;-53
2023/05/31 00:49:16;;;;;;;;;;;;;;;19.63;100.00;102482.13;5056893;28;19913;-55
2023/05/31 00:51:42;;;;;;;;;;;;;;;19.69;100.00;102476.88;5056050;28;19916;-52
2023/05/31 00:54:07;;;;;;;;;;;;;;;19.65;100.00;102473.75;5056881;28;19913;-56
2023/05/31 00:56:33;;;;;;;;;;;;;;;19.74;100.00;102477.06;5055599;28;19987;-55
2023/05/31 00:58:59;;;;;;;;;;;;;;;19.64;100.00;102482.97;5035602;28;19913;-56
2023/05/31 01:01:32;;;;;;;;;;;;;;;19.54;100.00;102482.59;5056042;28;19984;-53
2023/05/31 01:03:58;;;;;;;;;;;;;;;19.56;100.00;102481.31;5059911;28;19913;-55
2023/05/31 01:06:24;;;;;;;;;;;;;;;19.49;100.00;102491.38;5057375;28;19947;-53
2023/05/31 01:08:51;;;;;;;;;;;;;;;19.46;100.00;102497.25;5058527;28;19917;-50
2023/05/31 01:11:27;;;;;;;;;;;;;;;19.15;100.00;102490.69;5060362;28;19913;-53
2023/05/31 01:14:04;;;;;;;;;;;;;;;19.46;100.00;102489.91;5056430;28;19921;-56
2023/05/31 01:16:33;;;;;;;;;;;;;;;19.45;100.00;102487.44;5055487;28;19913;-55
2023/05/31 01:19:03;;;;;;;;;;;;;;;19.45;100.00;102490.16;5036456;28;19917;-54
2023/05/31 01:21:51;;;;;;;;;;;;;;;19.49;100.00;102488.66;5038807;28;19912;-56
2023/05/31 01:24:17;;;;;;;;;;;;;;;19.44;100.00;102488.47;5040441;28;19912;-55
2023/05/31 01:26:44;;;;;;;;;;;;;;;19.19;100.00;102483.78;5058064;28;19920;-52
2023/05/31 01:29:12;;;;;;;;;;;;;;;19.23;100.00;102487.72;5058605;28;19917;-52
2023/05/31 01:31:39;;;;;;;;;;;;;;;19.40;100.00;102487.25;5060665;28;19952;-51
2023/05/31 01:34:05;;;;;;;;;;;;;;;19.20;100.00;102493.56;5058448;28;19934;-52
2023/05/31 01:36:31;;;;;;;;;;;;;;;19.21;100.00;102484.38;5056768;28;19977;-52
2023/05/31 01:38:56;;;;;;;;;;;;;;;19.31;100.00;102486.66;5065121;28;19931;-54
2023/05/31 01:41:23;;;;;;;;;;;;;;;19.32;100.00;102481.00;5063072;28;19921;-52
2023/05/31 01:43:49;;;;;;;;;;;;;;;19.38;100.00;102489.34;5062604;28;19923;-54
2023/05/31 01:46:16;;;;;;;;;;;;;;;19.41;100.00;102484.31;5053917;28;19939;-53
2023/05/31 01:48:42;;;;;;;;;;;;;;;19.41;100.00;102487.03;5042185;28;19947;-55
2023/05/31 01:51:10;;;;;;;;;;;;;;;19.28;100.00;102485.19;5037661;28;19913;-51
2023/05/31 01:53:36;;;;;;;;;;;;;;;19.19;100.00;102486.50;5040252;28;19936;-53
2023/05/31 01:56:02;;;;;;;;;;;;;;;19.19;100.00;102481.06;5058549;28;20076;-55
2023/05/31 01:58:30;;;;;;;;;;;;;;;19.24;100.00;102480.41;5042280;28;19931;-55
2023/05/31 02:00:58;;;;;;;;;;;;;;;19.19;100.00;102481.06;5040812;28;19953;-56
2023/05/31 02:03:24;;;;;;;;;;;;;;;19.11;100.00;102478.56;5045018;28;19972;-50
2023/05/31 02:05:55;;;;;;;;;;;;;;;19.06;100.00;102471.09;5059513;28;19920;-54
2023/05/31 02:08:21;;;;;;;;;;;;;;;19.16;100.00;102471.47;5044529;28;19924;-51
2023/05/31 02:10:47;;;;;;;;;;;;;;;19.08;100.00;102469.00;5043627;28;19945;-54
2023/05/31 02:13:12;;;;;;;;;;;;;;;19.14;100.00;102470.84;5047986;28;19936;-56
2023/05/31 02:15:41;;;;;;;;;;;;;;;19.12;100.00;102474.81;5047529;28;19940;-55
2023/05/31 02:18:07;;;;;;;;;;;;;;;19.04;100.00;102468.56;5049567;28;19912;-57
2023/05/31 02:20:33;;;;;;;;;;;;;;;19.09;100.00;102472.53;5060696;28;19912;-51
2023/05/31 02:23:00;;;;;;;;;;;;;;;19.13;100.00;102465.63;5064280;28;19980;-56
2023/05/31 02:25:25;;;;;;;;;;;;;;;19.05;100.00;102472.94;5063353;28;19916;-51
2023/05/31 02:27:51;;;;;;;;;;;;;;;18.94;100.00;102470.03;5063774;28;19946;-52
2023/05/31 02:30:17;;;;;;;;;;;;;;;18.99;100.00;102471.09;5060396;28;19917;-56
2023/05/31 02:32:42;;;;;;;;;;;;;;;19.01;100.00;102469.00;5043040;28;19992;-55
2023/05/31 02:35:09;;;;;;;;;;;;;;;19.02;100.00;102467.97;5041653;28;19944;-55
2023/05/31 02:37:36;;;;;;;;;;;;;;;18.91;100.00;102468.56;5062212;28;20028;-56
2023/05/31 02:40:07;;;;;;;;;;;;;;;18.90;100.00;102464.19;5044026;28;19944;-56
2023/05/31 02:42:32;;;;;;;;;;;;;;;18.91;100.00;102464.00;5061840;28;19912;-54
2023/05/31 02:44:58;;;;;;;;;;;;;;;19.02;100.00;102464.41;5058999;28;19920;-56
2023/05/31 02:47:23;;;;;;;;;;;;;;;18.98;100.00;102461.31;5064277;28;19923;-56
2023/05/31 02:49:49;;;;;;;;;;;;;;;18.87;100.00;102460.03;5044477;28;19943;-57
2023/05/31 02:52:15;;;;;;;;;;;;;;;18.97;100.00;102459.59;5041806;28;19913;-56
2023/05/31 02:55:05;;;;;;;;;;;;;;;18.85;100.00;102453.16;5043848;28;19984;-53
2023/05/31 02:57:38;;;;;;;;;;;;;;;18.64;100.00;102457.78;5039981;28;19913;-55
2023/05/31 03:00:13;;;;;;;;;;;;;;;18.86;100.00;102457.53;5042781;28;19952;-56
2023/05/31 03:02:39;;;;;;;;;;;;;;;18.67;100.00;102454.66;5040945;28;19999;-56
2023/05/31 03:05:14;;;;;;;;;;;;;;;18.84;100.00;102448.78;5039583;28;19959;-54
2023/05/31 03:07:40;;;;;;;;;;;;;;;18.64;100.00;102455.06;5040527;28;19917;-56
2023/05/31 03:10:06;;;;;;;;;;;;;;;18.83;100.00;102456.09;5057793;28;19977;-55
2023/05/31 03:12:32;;;;;;;;;;;;;;;18.76;100.00;102457.97;5041726;28;19952;-51
2023/05/31 03:15:00;;;;;;;;;;;;;;;18.74;100.00;102458.19;5038907;28;19960;-51
2023/05/31 03:17:25;;;;;;;;;;;;;;;18.69;100.00;102449.88;5039145;28;19921;-55
2023/05/31 03:19:50;;;;;;;;;;;;;;;18.68;100.00;102453.59;5044328;28;19913;-52
2023/05/31 03:22:16;;;;;;;;;;;;;;;18.65;100.00;102445.91;5040259;28;19936;-51
2023/05/31 03:24:42;;;;;;;;;;;;;;;18.65;100.00;102437.75;5061844;28;19956;-54
2023/05/31 03:27:08;;;;;;;;;;;;;;;18.67;100.00;102443.81;5043030;28;19924;-53
2023/05/31 03:29:38;;;;;;;;;;;;;;;18.67;100.00;102443.00;5063243;28;19913;-54
2023/05/31 03:32:04;;;;;;;;;;;;;;;18.48;100.00;102446.34;5041011;28;19920;-56
2023/05/31 03:34:29;;;;;;;;;;;;;;;18.59;100.00;102442.16;5060087;28;19976;-51
2023/05/31 03:36:56;;;;;;;;;;;;;;;18.60;100.00;102445.69;5060091;28;19940;-56
2023/05/31 03:39:32;;;;;;;;;;;;;;;18.74;100.00;102441.94;5040808;28;19927;-51
2023/05/31 03:42:00;;;;;;;;;;;;;;;18.56;100.00;102441.75;5038016;28;19912;-55
2023/05/31 03:44:25;;;;;;;;;;;;;;;18.59;100.00;102446.75;5043372;28;19909;-53
2023/05/31 03:46:51;;;;;;;;;;;;;;;18.62;100.00;102443.59;5057923;28;20024;-52
2023/05/31 03:49:17;;;;;;;;;;;;;;;18.62;100.00;102438.19;5040840;28;19944;-57
2023/05/31 03:51:46;;;;;;;;;;;;;;;18.46;100.00;102432.19;5040337;28;19917;-51
2023/05/31 03:54:11;;;;;;;;;;;;;;;18.54;100.00;102441.94;5043318;28;19919;-54
2023/05/31 03:56:37;;;;;;;;;;;;;;;18.59;100.00;102439.47;5058522;28;19914;-55
2023/05/31 03:59:03;;;;;;;;;;;;;;;18.54;100.00;102446.53;5038150;28;19913;-51
2023/05/31 04:01:29;;;;;;;;;;;;;;;18.61;100.00;102441.94;5042407;28;19920;-53
2023/05/31 04:03:55;;;;;;;;;;;;;;;18.66;100.00;102439.44;5041609;28;19917;-53
2023/05/31 04:06:20;;;;;;;;;;;;;;;18.59;100.00;102444.88;5057009;28;19976;-54
2023/05/31 04:08:46;;;;;;;;;;;;;;;18.72;100.00;102446.75;5038642;28;19917;-52
2023/05/31 04:11:11;;;;;;;;;;;;;;;18.76;100.00;102461.53;5039629;28;19913;-52
2023/05/31 04:13:37;;;;;;;;;;;;;;;18.75;100.00;102459.84;5038031;28;19913;-55
2023/05/31 04:16:02;;;;;;;;;;;;;;;18.45;100.00;102460.31;5039998;28;19956;-54
2023/05/31 04:18:28;;;;;;;;;;;;;;;18.51;100.00;102463.22;5035023;28;19920;-54
2023/05/31 04:20:54;;;;;;;;;;;;;;;18.56;100.00;102460.72;5041519;28;19920;-56
2023/05/31 04:23:20;;;;;;;;;;;;;;;18.70;100.00;102451.53;5040504;28;19913;-52
2023/05/31 04:25:47;;;;;;;;;;;;;;;18.69;100.00;102458.00;5040123;28;19980;-53
2023/05/31 04:28:15;;;;;;;;;;;;;;;18.55;100.00;102459.06;5038322;28;19925;-53
2023/05/31 04:30:40;;;;;;;;;;;;;;;18.65;100.00;102462.16;5037840;28;19956;-55
2023/05/31 04:33:06;;;;;;;;;;;;;;;18.63;100.00;102461.53;5042370;28;19937;-52
2023/05/31 04:35:34;;;;;;;;;;;;;;;18.76;100.00;102466.09;5037975;28;19924;-52
2023/05/31 04:38:02;;;;;;;;;;;;;;;18.76;100.00;102463.38;5036437;28;19923;-54
2023/05/31 04:40:31;;;;;;;;;;;;;;;18.81;100.00;102452.78;5043649;28;19937;-52
2023/05/31 04:43:00;;;;;;;;;;;;;;;18.49;100.00;102458.84;5040706;28;19952;-52
2023/05/31 04:45:28;;;;;;;;;;;;;;;18.58;100.00;102464.03;5031541;28;19935;-52
2023/05/31 04:47:55;;;;;;;;;;;;;;;18.53;100.00;102453.00;5037828;28;19913;-56
2023/05/31 04:50:20;;;;;;;;;;;;;;;18.78;100.00;102462.16;5037627;28;19917;-52
2023/05/31 04:52:46;;;;;;;;;;;;;;;18.92;100.00;102464.84;5036314;28;19917;-54
2023/05/31 04:55:12;;;;;;;;;;;;;;;18.98;100.00;102461.31;5037359;28;19966;-50
2023/05/31 04:57:37;;;;;;;;;;;;;;;18.77;100.00;102462.34;5037560;28;19916;-54
2023/05/31 05:00:15;;;;;;;;;;;;;;;18.78;100.00;102470.28;5041029;28;19939;-52
2023/05/31 05:02:51;;;;;;;;;;;;;;;19.02;100.00;102459.81;5033247;28;19981;-52
2023/05/31 05:05:17;;;;;;;;;;;;;;;18.98;100.00;102464.00;5034354;28;19917;-52
2023/05/31 05:07:42;;;;;;;;;;;;;;;18.99;100.00;102462.97;5039292;28;19924;-52
2023/05/31 05:10:08;;;;;;;;;;;;;;;19.14;100.00;102473.56;5024874;28;19952;-51
2023/05/31 05:12:35;;;;;;;;;;;;;;;19.20;100.00;102467.28;5023289;28;19936;-48
2023/05/31 05:15:00;;;;;;;;;;;;;;;18.67;100.00;102473.59;5020063;28;19914;-56
2023/05/31 05:17:27;;;;;;;;;;;;;;;18.99;100.00;102464.84;5018590;28;19948;-54
2023/05/31 05:19:54;;;;;;;;;;;;;;;18.73;100.00;102470.09;5022938;28;19912;-53
2023/05/31 05:22:20;;;;;;;;;;;;;;;18.95;100.00;102459.00;5018806;28;19913;-51
2023/05/31 05:24:46;;;;;;;;;;;;;;;18.84;100.00;102459.63;5019318;28;19914;-56
2023/05/31 05:27:12;;;;;;;;;;;;;;;18.85;100.00;102464.00;5018613;28;19920;-54
2023/05/31 05:29:38;;;;;;;;;;;;;;;19.30;100.00;102466.00;5022858;28;19913;-53
2023/05/31 05:32:03;;;;;;;;;;;;;;;19.52;100.00;102471.13;5019498;28;19925;-54
2023/05/31 05:34:30;;;;;;;;;;;;;;;19.80;100.00;102478.91;5022078;28;19913;-56
2023/05/31 05:36:57;;;;;;;;;;;;;;;19.79;100.00;102479.94;5021064;28;19921;-54
2023/05/31 05:39:22;;;;;;;;;;;;;;;19.61;100.00;102476.09;5017229;28;19910;-53
2023/05/31 05:41:47;;;;;;;;;;;;;;;19.70;100.00;102482.09;5002270;28;19914;-54
2023/05/31 05:44:13;;;;;;;;;;;;;;;19.77;100.00;102488.31;5021452;28;19973;-51
2023/05/31 05:46:38;;;;;;;;;;;;;;;19.91;100.00;102483.69;5016450;28;19921;-51
2023/05/31 05:49:04;;;;;;;;;;;;;;;19.74;100.00;102486.06;5021347;28;19928;-55
2023/05/31 05:51:30;;;;;;;;;;;;;;;19.87;100.00;102485.13;5019845;28;19922;-51
2023/05/31 05:53:59;;;;;;;;;;;;;;;19.75;100.00;102485.00;5013745;28;19925;-52
2023/05/31 05:56:25;;;;;;;;;;;;;;;19.74;100.00;102487.91;5017824;28;19944;-51
2023/05/31 05:58:55;;;;;;;;;;;;;;;19.89;100.00;102485.75;5020451;28;19920;-55
2023/05/31 06:01:35;;;;;;;;;;;;;;;20.14;100.00;102476.84;5021992;28;19917;-56
2023/05/31 06:04:02;;;;;;;;;;;;;;;20.35;100.00;102488.38;5019602;28;19918;-54
2023/05/31 06:06:27;;;;;;;;;;;;;;;20.22;100.00;102480.34;5017067;28;19913;-52
2023/05/31 06:08:53;;;;;;;;;;;;;;;20.02;100.00;102484.00;5013911;28;19925;-54
2023/05/31 06:11:19;;;;;;;;;;;;;;;20.39;100.00;102489.59;5018851;28;19914;-55
2023/05/31 06:13:45;;;;;;;;;;;;;;;20.45;100.00;102488.72;5018648;28;19918;-56
2023/05/31 06:16:13;;;;;;;;;;;;;;;20.57;100.00;102488.00;5016592;28;19914;-56
2023/05/31 06:18:40;;;;;;;;;;;;;;;20.47;100.00;102486.59;5016475;28;19920;-56
2023/05/31 06:21:05;;;;;;;;;;;;;;;20.55;100.00;102481.97;5022118;28;19917;-54
2023/05/31 06:23:31;;;;;;;;;;;;;;;20.60;100.00;102487.56;5019537;28;19913;-53
2023/05/31 06:25:57;;;;;;;;;;;;;;;20.71;100.00;102477.84;5021611;28;19989;-56
2023/05/31 06:28:22;;;;;;;;;;;;;;;20.78;100.00;102478.59;5021017;28;19925;-54
2023/05/31 06:30:51;;;;;;;;;;;;;;;20.95;100.00;102486.19;5019302;28;19917;-54
2023/05/31 06:33:16;;;;;;;;;;;;;;;21.02;100.00;102482.34;5019536;28;19914;-53
2023/05/31 06:35:42;;;;;;;;;;;;;;;21.14;100.00;102479.72;5031333;28;19969;-52
2023/05/31 06:38:14;;;;;;;;;;;;;;;21.12;100.00;102497.31;5018032;28;19922;-55
2023/05/31 06:40:45;;;;;;;;;;;;;;;21.31;100.00;102490.81;5020900;28;19913;-55
2023/05/31 06:43:10;;;;;;;;;;;;;;;21.47;99.76;102489.34;5023104;28;20384;-55
2023/05/31 06:45:55;;;;;;;;;;;;;;;21.63;96.46;102498.78;5015240;28;19959;-54
2023/05/31 06:48:39;;;;;;;;;;;;;;;21.57;95.84;102488.81;5025783;28;19947;-52
2023/05/31 06:51:27;;;;;;;;;;;;;;;21.50;97.77;102493.53;4976397;28;19920;-56
2023/05/31 06:54:26;;;;;;;;;;;;;;;21.63;96.98;102493.31;5018076;28;19929;-54
2023/05/31 06:56:52;;;;;;;;;;;;;;;21.62;93.70;102499.00;5025815;28;19914;-56
2023/05/31 06:59:18;;;;;;;;;;;;;;;21.64;94.02;102488.72;5027822;28;20001;-52
2023/05/31 07:01:44;;;;;;;;;;;;;;;21.80;95.70;102498.16;5030262;28;19914;-52
2023/05/31 07:04:09;;;;;;;;;;;;;;;22.02;90.00;102495.72;5024620;28;19985;-53
2023/05/31 07:06:37;;;;;;;;;;;;;;;22.06;88.55;102505.13;5031493;28;19941;-56
2023/05/31 07:09:03;;;;;;;;;;;;;;;22.14;89.27;102500.41;5033065;28;19957;-54
2023/05/31 07:11:32;;;;;;;;;;;;;;;21.96;88.74;102498.59;5036939;28;19972;-51
2023/05/31 07:14:01;;;;;;;;;;;;;;;22.09;89.00;102503.00;5035271;28;19935;-53
2023/05/31 07:16:27;;;;;;;;;;;;;;;22.16;85.68;102496.38;5039441;28;19917;-55
2023/05/31 07:18:55;;;;;;;;;;;;;;;22.31;88.42;102497.81;5034709;28;19956;-52
2023/05/31 07:21:22;;;;;;;;;;;;;;;22.49;86.65;102494.22;5036187;28;19906;-53
2023/05/31 07:23:48;;;;;;;;;;;;;;;22.44;87.66;102497.63;5038937;28;19913;-51
2023/05/31 07:26:16;;;;;;;;;;;;;;;22.62;87.49;102477.63;5037050;28;19959;-56
2023/05/31 07:28:43;;;;;;;;;;;;;;;22.86;83.13;102487.69;5034199;28;19985;-55
2023/05/31 07:31:08;;;;;;;;;;;;;;;22.55;84.76;102489.69;5036510;28;19918;-54
2023/05/31 07:33:33;;;;;;;;;;;;;;;22.79;80.10;102482.34;5037227;28;19976;-53
2023/05/31 07:36:02;;;;;;;;;;;;;;;22.91;81.38;102479.63;5037899;28;19940;-49
2023/05/31 07:38:27;;;;;;;;;;;;;;;22.91;82.96;102474.16;5039251;28;19913;-49
2023/05/31 07:40:53;;;;;;;;;;;;;;;23.06;82.25;102482.66;5037581;28;19936;-49
2023/05/31 07:43:21;;;;;;;;;;;;;;;23.42;80.36;102481.78;5040106;28;19921;-51
2023/05/31 07:45:50;;;;;;;;;;;;;;;23.42;80.79;102481.78;5039077;28;19944;-52
2023/05/31 07:48:19;;;;;;;;;;;;;;;23.42;80.50;102479.03;5038484;28;19921;-51
2023/05/31 07:50:45;;;;;;;;;;;;;;;23.46;78.59;102472.03;5033565;28;19917;-50
2023/05/31 07:53:11;;;;;;;;;;;;;;;23.88;78.96;102479.09;5037362;28;19913;-51
2023/05/31 07:55:37;;;;;;;;;;;;;;;24.02;77.48;102468.72;5038646;28;19924;-54
2023/05/31 07:58:06;;;;;;;;;;;;;;;23.76;72.85;102468.22;5036553;28;19993;-54
2023/05/31 08:00:32;;;;;;;;;;;;;;;23.47;72.83;102468.22;5039483;28;19913;-51
2023/05/31 08:02:57;;;;;;;;;;;;;;;23.71;76.99;102468.13;5038305;28;20339;-54
2023/05/31 08:05:23;;;;;;;;;;;;;;;24.11;75.12;102469.94;5039802;28;19968;-54
2023/05/31 08:07:48;;;;;;;;;;;;;;;24.21;73.49;102474.75;5039186;28;19993;-53
2023/05/31 08:10:17;;;;;;;;;;;;;;;23.99;74.27;102471.88;5055300;28;19936;-51
2023/05/31 08:12:42;;;;;;;;;;;;;;;24.34;72.07;102468.13;5043971;28;19920;-56
2023/05/31 08:15:08;;;;;;;;;;;;;;;24.30;69.64;102466.97;5055651;28;19913;-53
2023/05/31 08:17:33;;;;;;;;;;;;;;;24.54;72.45;102467.59;5055806;28;19913;-52
2023/05/31 08:19:59;;;;;;;;;;;;;;;24.56;71.59;102461.88;5059202;28;19912;-54
2023/05/31 08:22:24;;;;;;;;;;;;;;;24.71;72.38;102458.53;5055866;28;19912;-54
2023/05/31 08:24:50;;;;;;;;;;;;;;;24.85;70.61;102454.41;5058863;28;19956;-55
2023/05/31 08:27:17;;;;;;;;;;;;;;;24.63;71.10;102459.78;5057623;28;19917;-55
2023/05/31 08:29:42;;;;;;;;;;;;;;;24.88;70.50;102455.78;5059772;28;19940;-56
2023/05/31 08:32:08;;;;;;;;;;;;;;;24.87;68.49;102459.59;5064021;28;19913;-53
2023/05/31 08:34:33;;;;;;;;;;;;;;;25.00;67.89;102461.13;5058866;28;19913;-53
2023/05/31 08:36:59;;;;;;;;;;;;;;;25.26;69.04;102455.97;5065179;28;19924;-57
2023/05/31 08:39:25;;;;;;;;;;;;;;;25.01;67.88;102460.88;5062371;28;19917;-56
2023/05/31 08:42:01;;;;;;;;;;;;;;;25.25;67.09;102457.88;5057236;28;19913;-53
2023/05/31 08:44:27;;;;;;;;;;;;;;;25.35;67.59;102452.50;5062141;28;19923;-54
2023/05/31 08:46:56;;;;;;;;;;;;;;;25.71;66.48;102456.75;5061069;28;19913;-57
2023/05/31 08:49:21;;;;;;;;;;;;;;;25.69;66.97;102459.75;5055724;28;19928;-57
2023/05/31 08:51:48;;;;;;;;;;;;;;;25.88;65.33;102459.38;5058498;28;20364;-55
2023/05/31 08:54:13;;;;;;;;;;;;;;;25.71;64.63;102451.28;5057258;28;19917;-55
2023/05/31 08:56:40;;;;;;;;;;;;;;;26.39;61.50;102455.41;5059616;28;19976;-55
2023/05/31 08:59:09;;;;;;;;;;;;;;;26.20;63.19;102447.63;5058861;28;19912;-57
2023/05/31 09:01:36;;;;;;;;;;;;;;;26.21;63.38;102443.78;5056964;28;19924;-56
2023/05/31 09:04:03;;;;;;;;;;;;;;;26.04;61.77;102455.69;5054826;28;20007;-55
2023/05/31 09:06:29;;;;;;;;;;;;;;;26.14;60.88;102449.44;5056268;28;19939;-58
2023/05/31 09:08:55;;;;;;;;;;;;;;;26.26;59.92;102440.22;5055597;28;19925;-58
2023/05/31 09:11:20;;;;;;;;;;;;;;;26.30;61.95;102444.13;5054376;28;19917;-57
2023/05/31 09:13:46;;;;;;;;;;;;;;;26.32;60.73;102450.16;5055912;28;19917;-56
2023/05/31 09:16:12;;;;;;;;;;;;;;;26.83;60.63;102441.38;5057910;28;19932;-56
2023/05/31 09:18:38;;;;;;;;;;;;;;;27.03;59.94;102443.44;5053614;28;19932;-56
2023/05/31 09:21:07;;;;;;;;;;;;;;;27.07;59.22;102448.38;5062473;28;19924;-56
2023/05/31 09:23:34;;;;;;;;;;;;;;;27.34;58.99;102437.22;5061581;28;19944;-58
2023/05/31 09:25:59;;;;;;;;;;;;;;;27.56;56.92;102434.25;5042381;28;19913;-57
2023/05/31 09:28:25;;;;;;;;;;;;;;;27.88;56.58;102435.91;5060499;28;19916;-57
2023/05/31 09:31:03;;;;;;;;;;;;;;;28.14;56.67;102438.66;5055373;28;19936;-54
2023/05/31 09:33:39;;;;;;;;;;;;;;;28.17;56.32;102437.28;5053442;28;19949;-55
2023/05/31 09:36:04;;;;;;;;;;;;;;;28.65;54.44;102436.91;5052741;28;19940;-53
2023/05/31 09:38:31;;;;;;;;;;;;;;;28.87;53.13;102436.56;5054526;28;19924;-55
2023/05/31 09:41:10;;;;;;;;;;;;;;;29.40;52.10;102439.88;5055740;28;19939;-53
2023/05/31 09:43:40;;;;;;;;;;;;;;;29.80;50.22;102429.69;5057594;28;19919;-53
2023/05/31 09:46:10;;;;;;;;;;;;;;;29.67;49.28;102427.56;5054786;28;19928;-54
2023/05/31 09:48:36;;;;;;;;;;;;;;;29.98;48.89;102439.16;5059293;28;19920;-53
2023/05/31 09:51:05;;;;;;;;;;;;;;;30.72;47.38;102424.38;5056742;28;19952;-55
2023/05/31 09:53:31;;;;;;;;;;;;;;;31.55;45.88;102431.50;5061621;28;19913;-56
2023/05/31 09:55:57;;;;;;;;;;;;;;;32.11;44.20;102422.56;5054378;28;19913;-57
2023/05/31 09:58:30;;;;;;;;;;;;;;;32.50;43.03;102428.75;5042450;28;19912;-57
2023/05/31 10:00:58;;;;;;;;;;;;;;;33.45;40.83;102418.97;5055066;28;19917;-54
2023/05/31 10:03:24;;;;;;;;;;;;;;;33.64;40.20;102431.81;5056798;28;19924;-59
2023/05/31 10:05:51;;;;;;;;;;;;;;;34.36;38.71;102429.91;5056874;28;19913;-56
2023/05/31 10:08:16;;;;;;;;;;;;;;;34.81;37.48;102431.69;5056827;28;19917;-53
2023/05/31 10:10:42;;;;;;;;;;;;;;;35.39;36.25;102433.53;5054414;28;19917;-57
2023/05/31 10:13:11;;;;;;;;;;;;;;;35.72;35.79;102428.28;5053007;28;19920;-57
2023/05/31 10:15:37;;;;;;;;;;;;;;;36.12;34.71;102432.75;5052910;28;19916;-56
2023/05/31 10:18:07;;;;;;;;;;;;;;;36.52;33.91;102425.22;5057319;28;19921;-54
2023/05/31 10:20:38;;;;;;;;;;;;;;;37.02;33.73;102427.19;5057373;28;19913;-51
2023/05/31 10:23:07;;;;;;;;;;;;;;;36.54;33.15;102420.13;5058376;28;19913;-57
2023/05/31 10:25:44;;;;;;;;;;;;;;;36.62;33.39;102427.59;5057818;28;19916;-57
2023/05/31 10:28:12;;;;;;;;;;;;;;;37.04;32.58;102432.44;5057904;28;19981;-57
2023/05/31 10:30:39;;;;;;;;;;;;;;;37.29;31.67;102422.19;5058892;28;19927;-54
2023/05/31 10:33:07;;;;;;;;;;;;;;;37.57;31.18;102412.44;5061056;28;19927;-58
2023/05/31 10:35:32;;;;;;;;;;;;;;;37.57;30.61;102421.59;5057959;28;19916;-57
2023/05/31 10:37:59;;;;;;;;;;;;;;;37.76;30.01;102423.03;5060621;28;19913;-57
2023/05/31 10:40:30;;;;;;;;;;;;;;;38.58;28.50;102415.78;5058870;28;20011;-54
2023/05/31 10:43:15;;;;;;;;;;;;;;;38.83;28.55;102414.91;5057441;28;19917;-60
2023/05/31 10:45:48;;;;;;;;;;;;;;;39.30;28.02;102411.47;5054788;28;19912;-57
2023/05/31 10:48:26;;;;;;;;;;;;;;;39.71;27.93;102413.38;5054440;28;19984;-58
2023/05/31 10:50:53;;;;;;;;;;;;;;;39.77;27.53;102411.94;5061131;28;19916;-54
2023/05/31 10:53:19;;;;;;;;;;;;;;;39.79;26.79;102403.97;5059202;28;19980;-57
2023/05/31 10:55:46;;;;;;;;;;;;;;;40.13;27.22;102396.03;5058837;28;19913;-56
2023/05/31 10:58:24;;;;;;;;;;;;;;;40.13;26.14;102398.81;5059201;28;19913;-58
2023/05/31 11:00:51;;;;;;;;;;;;;;;40.38;25.92;102398.66;5058026;28;19913;-59
2023/05/31 11:03:20;;;;;;;;;;;;;;;40.18;26.16;102380.94;5038753;28;19913;-57
2023/05/31 11:05:53;;;;;;;;;;;;;;;40.75;25.43;102386.25;5059160;28;19913;-57
2023/05/31 11:08:19;;;;;;;;;;;;;;;40.72;25.59;102392.59;5062270;28;19928;-58
2023/05/31 11:10:44;;;;;;;;;;;;;;;41.21;24.40;102390.38;5059437;28;19917;-57
2023/05/31 11:13:11;;;;;;;;;;;;;;;42.17;23.40;102398.03;5056858;28;19932;-58
2023/05/31 11:15:38;;;;;;;;;;;;;;;42.56;23.72;102391.38;5057411;28;19912;-58
2023/05/31 11:18:07;;;;;;;;;;;;;;;42.28;23.88;102378.53;5059784;28;19927;-56
2023/05/31 11:20:34;;;;;;;;;;;;;;;42.58;23.57;102379.75;5057388;28;19945;-58
2023/05/31 11:23:18;;;;;;;;;;;;;;;42.82;22.55;102378.41;5054615;28;19929;-60
2023/05/31 11:25:44;;;;;;;;;;;;;;;42.60;22.98;102378.16;5058686;28;19920;-59
2023/05/31 11:28:09;;;;;;;;;;;;;;;43.17;22.57;102374.41;5058999;28;19913;-60
2023/05/31 11:30:36;;;;;;;;;;;;;;;43.54;22.40;102373.56;5057840;28;19916;-58
2023/05/31 11:33:02;;;;;;;;;;;;;;;43.44;22.97;102373.47;5040242;28;19984;-56
2023/05/31 11:35:30;;;;;;;;;;;;;;;43.88;22.52;102374.66;5054665;28;19912;-58
2023/05/31 11:38:00;;;;;;;;;;;;;;;43.78;22.22;102362.13;5057858;28;19917;-59
2023/05/31 11:40:27;;;;;;;;;;;;;;;43.83;22.23;102367.38;5055614;28;19921;-58
2023/05/31 11:42:55;;;;;;;;;;;;;;;44.46;22.20;102358.06;5057112;28;19920;-58
2023/05/31 11:45:22;;;;;;;;;;;;;;;44.69;22.53;102363.44;5055819;28;19927;-58
2023/05/31 11:47:48;;;;;;;;;;;;;;;44.94;21.29;102357.06;5058611;28;19935;-58
2023/05/31 11:50:16;;;;;;;;;;;;;;;45.43;20.95;102362.38;5039726;28;19921;-59
2023/05/31 11:52:43;;;;;;;;;;;;;;;45.36;21.38;102357.53;5055313;28;19913;-58
2023/05/31 11:55:09;;;;;;;;;;;;;;;44.96;20.97;102355.44;5055536;28;19928;-59
2023/05/31 11:57:45;;;;;;;;;;;;;;;45.20;21.60;102347.41;5058185;28;19951;-58
2023/05/31 12:00:11;;;;;;;;;;;;;;;46.19;20.63;102345.34;5056467;28;19944;-60
2023/05/31 12:02:38;;;;;;;;;;;;;;;45.21;21.13;102346.19;5056817;28;19913;-59
2023/05/31 12:05:04;;;;;;;;;;;;;;;45.52;20.45;102341.00;5058992;28;19951;-59
2023/05/31 12:07:30;;;;;;;;;;;;;;;46.31;20.39;102339.22;5064596;28;19913;-58
2023/05/31 12:09:55;;;;;;;;;;;;;;;46.52;19.94;102340.38;5057626;28;19913;-59
2023/05/31 12:12:21;;;;;;;;;;;;;;;45.73;20.22;102336.56;5058840;28;19921;-59
2023/05/31 12:14:52;;;;;;;;;;;;;;;46.51;19.71;102336.75;5054775;28;19984;-59
2023/05/31 12:17:17;;;;;;;;;;;;;;;46.46;19.67;102328.63;5055720;28;19928;-59
2023/05/31 12:19:42;;;;;;;;;;;;;;;45.70;20.82;102328.88;5055968;28;19916;-59
2023/05/31 12:22:08;;;;;;;;;;;;;;;46.52;19.30;102326.22;5059653;28;19924;-58
2023/05/31 12:24:36;;;;;;;;;;;;;;;46.92;18.80;102321.16;5057897;28;19924;-60
2023/05/31 12:27:02;;;;;;;;;;;;;;;47.20;18.91;102322.13;5054333;28;19935;-59
2023/05/31 12:29:30;;;;;;;;;;;;;;;47.07;19.15;102319.00;5056267;28;19913;-59
2023/05/31 12:32:05;;;;;;;;;;;;;;;47.50;19.01;102311.38;5055117;28;19913;-60